Time;durP1;ratioP1;P1;durP2;ratioP2;P2;SDS_P1;SDS_P2;PMS_P1;PMS_P2;Temp;Humidity;BMP_temperature;BMP_pressure;BME280_temperature;BME280_humidity;BME280_pressure;Samples;Min_cycle;Max_cycle;Signal;HPM_P1;HPM_P2
2021/07/19 00:02:00;;;;;;;;;;;18.00;99.90;;;;;;5075820;28;19913;-75
2021/07/19 00:04:25;;;;;;;;;;;18.00;99.90;;;;;;5064029;28;19973;-75
2021/07/19 00:06:51;;;;;;;;;;;18.10;99.90;;;;;;5065100;28;19924;-76
2021/07/19 00:09:17;;;;;;;;;;;18.00;99.90;;;;;;5064833;28;20319;-75
2021/07/19 00:11:43;;;;;;;;;;;18.00;99.90;;;;;;5072056;28;19913;-75
2021/07/19 00:14:08;;;;;;;;;;;18.00;99.90;;;;;;5066359;28;19913;-76
2021/07/19 00:16:34;;;;;;;;;;;18.00;99.90;;;;;;5070834;28;19951;-76
2021/07/19 00:19:00;;;;;;;;;;;17.90;99.90;;;;;;5062007;28;20331;-76
2021/07/19 00:21:25;;;;;;;;;;;18.00;99.90;;;;;;5067886;28;20031;-75
2021/07/19 00:23:51;;;;;;;;;;;18.00;99.90;;;;;;5066136;28;19967;-76
2021/07/19 00:26:19;;;;;;;;;;;18.00;99.90;;;;;;5065781;28;19922;-75
2021/07/19 00:28:45;;;;;;;;;;;17.90;99.90;;;;;;5070645;28;19916;-76
2021/07/19 00:31:11;;;;;;;;;;;17.90;99.90;;;;;;5067999;28;19913;-77
2021/07/19 00:33:36;;;;;;;;;;;17.90;99.90;;;;;;5071795;28;19920;-76
2021/07/19 00:36:02;;;;;;;;;;;17.80;99.90;;;;;;5061913;28;19962;-75
2021/07/19 00:38:27;;;;;;;;;;;17.90;99.90;;;;;;5060609;28;20257;-76
2021/07/19 00:40:53;;;;;;;;;;;17.90;99.90;;;;;;5074105;28;19995;-76
2021/07/19 00:43:18;;;;;;;;;;;17.80;99.90;;;;;;5059922;28;19912;-76
2021/07/19 00:45:44;;;;;;;;;;;17.80;99.90;;;;;;5063023;28;20284;-76
2021/07/19 00:48:09;;;;;;;;;;;17.70;99.90;;;;;;5066867;28;19916;-76
2021/07/19 00:50:37;;;;;;;;;;;17.70;99.90;;;;;;5063627;28;19970;-75
2021/07/19 00:53:03;;;;;;;;;;;17.60;99.90;;;;;;5064002;28;19919;-76
2021/07/19 00:55:31;;;;;;;;;;;17.60;99.90;;;;;;5069908;28;20423;-76
2021/07/19 00:57:57;;;;;;;;;;;17.60;99.90;;;;;;5063157;28;19913;-76
2021/07/19 01:00:23;;;;;;;;;;;17.60;99.90;;;;;;5070799;28;20269;-75
2021/07/19 01:02:49;;;;;;;;;;;17.50;99.90;;;;;;5072250;28;19913;-76
2021/07/19 01:05:16;;;;;;;;;;;17.50;99.90;;;;;;5071505;28;20116;-75
2021/07/19 01:07:43;;;;;;;;;;;17.50;99.90;;;;;;5061017;28;19924;-75
2021/07/19 01:10:19;;;;;;;;;;;17.50;99.90;;;;;;5068156;28;19917;-76
2021/07/19 01:12:46;;;;;;;;;;;17.40;99.90;;;;;;5068554;28;19912;-76
2021/07/19 01:15:12;;;;;;;;;;;17.40;99.90;;;;;;5065768;28;20003;-75
2021/07/19 01:17:37;;;;;;;;;;;17.40;99.90;;;;;;5061386;28;19951;-75
2021/07/19 01:20:03;;;;;;;;;;;17.30;99.90;;;;;;5070212;28;20304;-75
2021/07/19 01:22:47;;;;;;;;;;;17.30;99.90;;;;;;5069794;28;19928;-75
2021/07/19 01:25:31;;;;;;;;;;;17.30;99.90;;;;;;5070104;28;19970;-76
2021/07/19 01:28:15;;;;;;;;;;;17.30;99.90;;;;;;5060286;28;19939;-76
2021/07/19 01:30:41;;;;;;;;;;;17.30;99.90;;;;;;5064158;28;19924;-75
2021/07/19 01:33:07;;;;;;;;;;;17.30;99.90;;;;;;5070751;28;19916;-75
2021/07/19 01:35:34;;;;;;;;;;;17.20;99.90;;;;;;5065742;28;20368;-76
2021/07/19 01:38:00;;;;;;;;;;;17.20;99.90;;;;;;5067232;28;20355;-76
2021/07/19 01:40:26;;;;;;;;;;;17.20;99.90;;;;;;5064288;28;20284;-76
2021/07/19 01:42:52;;;;;;;;;;;17.20;99.90;;;;;;5070058;28;19920;-75
2021/07/19 01:45:17;;;;;;;;;;;17.10;99.90;;;;;;5062097;28;19957;-76
2021/07/19 01:47:43;;;;;;;;;;;17.10;99.90;;;;;;5061843;28;20011;-76
2021/07/19 01:50:09;;;;;;;;;;;17.20;99.90;;;;;;5069064;28;19919;-75
2021/07/19 01:52:35;;;;;;;;;;;17.20;99.90;;;;;;5060668;28;19921;-75
2021/07/19 01:55:01;;;;;;;;;;;17.10;99.90;;;;;;5066414;28;20420;-75
2021/07/19 01:57:27;;;;;;;;;;;17.10;99.90;;;;;;5066607;28;19927;-76
2021/07/19 01:59:54;;;;;;;;;;;17.10;99.90;;;;;;5068124;28;19916;-76
2021/07/19 02:02:20;;;;;;;;;;;17.10;99.90;;;;;;5063482;28;19959;-75
2021/07/19 02:04:46;;;;;;;;;;;17.00;99.90;;;;;;5069407;28;19944;-75
2021/07/19 02:07:13;;;;;;;;;;;17.00;99.90;;;;;;5071991;28;20021;-76
2021/07/19 02:09:39;;;;;;;;;;;17.00;99.90;;;;;;5065586;28;19927;-75
2021/07/19 02:12:05;;;;;;;;;;;16.90;99.90;;;;;;5058225;28;19913;-76
2021/07/19 02:14:31;;;;;;;;;;;16.90;99.90;;;;;;5060241;28;19932;-75
2021/07/19 02:16:58;;;;;;;;;;;16.90;99.90;;;;;;5060471;28;19956;-75
2021/07/19 02:19:24;;;;;;;;;;;16.90;99.90;;;;;;5069331;28;20006;-76
2021/07/19 02:21:50;;;;;;;;;;;16.90;99.90;;;;;;5063830;28;20000;-76
2021/07/19 02:24:16;;;;;;;;;;;16.90;99.90;;;;;;5060862;28;20003;-76
2021/07/19 02:26:42;;;;;;;;;;;16.90;99.90;;;;;;5068033;28;19925;-76
2021/07/19 02:29:08;;;;;;;;;;;16.90;99.90;;;;;;5066112;28;19919;-75
2021/07/19 02:31:33;;;;;;;;;;;16.90;99.90;;;;;;5064279;28;19913;-75
2021/07/19 02:33:59;;;;;;;;;;;16.90;99.90;;;;;;5066438;28;21683;-75
2021/07/19 02:36:25;;;;;;;;;;;16.90;99.90;;;;;;5071523;28;20008;-75
2021/07/19 02:38:51;;;;;;;;;;;16.80;99.90;;;;;;5062451;28;19913;-75
2021/07/19 02:41:19;;;;;;;;;;;16.70;99.90;;;;;;5068756;28;19919;-76
2021/07/19 02:43:47;;;;;;;;;;;16.80;99.90;;;;;;5060767;28;19967;-76
2021/07/19 02:46:12;;;;;;;;;;;16.70;99.90;;;;;;5055081;28;19924;-75
2021/07/19 02:48:40;;;;;;;;;;;16.70;99.90;;;;;;5058952;28;20486;-75
2021/07/19 02:51:07;;;;;;;;;;;16.70;99.90;;;;;;5064085;28;20062;-75
2021/07/19 02:53:36;;;;;;;;;;;16.70;99.90;;;;;;5070903;28;19919;-76
2021/07/19 02:56:02;;;;;;;;;;;16.70;99.90;;;;;;5066012;28;20380;-76
2021/07/19 02:58:28;;;;;;;;;;;16.60;99.90;;;;;;5057973;28;19927;-76
2021/07/19 03:00:54;;;;;;;;;;;16.60;99.90;;;;;;5058803;28;19974;-76
2021/07/19 03:03:27;;;;;;;;;;;16.50;99.90;;;;;;5056709;28;19959;-75
2021/07/19 03:06:08;;;;;;;;;;;16.50;99.90;;;;;;5060113;28;19913;-76
2021/07/19 03:08:35;;;;;;;;;;;16.50;99.90;;;;;;5068392;28;20315;-76
2021/07/19 03:11:08;;;;;;;;;;;16.40;99.90;;;;;;5063541;28;19913;-76
2021/07/19 03:13:34;;;;;;;;;;;16.40;99.90;;;;;;5053037;28;19913;-76
2021/07/19 03:16:00;;;;;;;;;;;16.40;99.90;;;;;;5060967;28;19913;-75
2021/07/19 03:18:27;;;;;;;;;;;16.30;99.90;;;;;;5062741;28;20010;-75
2021/07/19 03:20:53;;;;;;;;;;;16.30;99.90;;;;;;5062776;28;19935;-75
2021/07/19 03:23:20;;;;;;;;;;;16.30;99.90;;;;;;5062404;28;20296;-75
2021/07/19 03:25:46;;;;;;;;;;;16.20;99.90;;;;;;5063379;28;19916;-75
2021/07/19 03:28:12;;;;;;;;;;;16.20;99.90;;;;;;5064198;28;20450;-76
2021/07/19 03:30:39;;;;;;;;;;;16.20;99.90;;;;;;5060628;28;20336;-75
2021/07/19 03:33:05;;;;;;;;;;;16.20;99.90;;;;;;5062663;28;19959;-74
2021/07/19 03:35:31;;;;;;;;;;;16.20;99.90;;;;;;5068042;28;19951;-76
2021/07/19 03:37:57;;;;;;;;;;;16.20;99.90;;;;;;5075800;28;20292;-76
2021/07/19 03:40:24;;;;;;;;;;;16.20;99.90;;;;;;5063874;28;19920;-75
2021/07/19 03:42:50;;;;;;;;;;;16.20;99.90;;;;;;5064160;28;19963;-76
2021/07/19 03:45:16;;;;;;;;;;;16.10;99.90;;;;;;5066461;28;20334;-75
2021/07/19 03:47:42;;;;;;;;;;;16.20;99.90;;;;;;5075453;28;19917;-75
2021/07/19 03:50:09;;;;;;;;;;;16.20;99.90;;;;;;5065172;28;19913;-75
2021/07/19 03:52:41;;;;;;;;;;;16.10;99.90;;;;;;5065302;28;19920;-75
2021/07/19 03:55:07;;;;;;;;;;;16.10;99.90;;;;;;5069914;28;19920;-76
2021/07/19 03:57:34;;;;;;;;;;;16.10;99.90;;;;;;5068128;28;19913;-75
2021/07/19 04:00:00;;;;;;;;;;;16.10;99.90;;;;;;5074113;28;19912;-75
2021/07/19 04:02:26;;;;;;;;;;;16.10;99.90;;;;;;5058479;28;20012;-75
2021/07/19 04:05:02;;;;;;;;;;;16.10;99.90;;;;;;5066274;28;19912;-75
2021/07/19 04:07:27;;;;;;;;;;;16.10;99.90;;;;;;5058806;28;19920;-75
2021/07/19 04:09:53;;;;;;;;;;;16.10;99.90;;;;;;5073131;28;20411;-76
2021/07/19 04:12:18;;;;;;;;;;;16.20;99.90;;;;;;5062563;28;20356;-76
2021/07/19 04:14:45;;;;;;;;;;;16.10;99.90;;;;;;5064449;28;19919;-76
2021/07/19 04:17:10;;;;;;;;;;;16.20;99.90;;;;;;5071680;28;19917;-75
2021/07/19 04:19:36;;;;;;;;;;;16.20;99.90;;;;;;5059441;28;19913;-75
2021/07/19 04:22:02;;;;;;;;;;;16.20;99.90;;;;;;5061020;28;19936;-76
2021/07/19 04:24:28;;;;;;;;;;;16.20;99.90;;;;;;5066112;28;19963;-75
2021/07/19 04:26:54;;;;;;;;;;;16.20;99.90;;;;;;5071310;28;19963;-75
2021/07/19 04:29:20;;;;;;;;;;;16.20;99.90;;;;;;5062220;28;19968;-75
2021/07/19 04:31:50;;;;;;;;;;;16.20;99.90;;;;;;5062318;28;20323;-75
2021/07/19 04:34:29;;;;;;;;;;;16.20;99.90;;;;;;5066224;28;19916;-75
2021/07/19 04:36:59;;;;;;;;;;;16.30;99.90;;;;;;5067545;28;19916;-75
2021/07/19 04:39:25;;;;;;;;;;;16.30;99.90;;;;;;5067241;28;20000;-76
2021/07/19 04:41:50;;;;;;;;;;;16.30;99.90;;;;;;5068658;28;19970;-74
2021/07/19 04:44:16;;;;;;;;;;;16.30;99.90;;;;;;5060162;28;19999;-75
2021/07/19 04:46:41;;;;;;;;;;;16.40;99.90;;;;;;5060434;28;19916;-75
2021/07/19 04:49:08;;;;;;;;;;;16.40;99.90;;;;;;5065474;28;19913;-76
2021/07/19 04:51:34;;;;;;;;;;;16.40;99.90;;;;;;5059477;28;20019;-75
2021/07/19 04:54:00;;;;;;;;;;;16.50;99.90;;;;;;5063711;28;19948;-75
2021/07/19 04:56:27;;;;;;;;;;;16.50;99.90;;;;;;5069075;28;19919;-75
2021/07/19 04:58:53;;;;;;;;;;;16.60;99.90;;;;;;5065924;28;20372;-76
2021/07/19 05:01:19;;;;;;;;;;;16.70;99.90;;;;;;5067678;28;19962;-75
2021/07/19 05:03:46;;;;;;;;;;;16.70;99.90;;;;;;5071646;28;20262;-75
2021/07/19 05:06:13;;;;;;;;;;;16.80;99.90;;;;;;5071763;28;19919;-75
2021/07/19 05:08:39;;;;;;;;;;;16.90;99.90;;;;;;5068874;28;19927;-75
2021/07/19 05:11:05;;;;;;;;;;;17.00;99.90;;;;;;5063927;28;19917;-75
2021/07/19 05:13:31;;;;;;;;;;;17.10;99.90;;;;;;5064184;28;20277;-75
2021/07/19 05:15:57;;;;;;;;;;;17.20;99.90;;;;;;5064627;28;19913;-75
2021/07/19 05:18:23;;;;;;;;;;;17.40;99.90;;;;;;5064773;28;20396;-74
2021/07/19 05:20:49;;;;;;;;;;;17.50;99.90;;;;;;5064796;28;19940;-75
2021/07/19 05:23:20;;;;;;;;;;;17.60;99.90;;;;;;5068108;28;19983;-75
2021/07/19 05:25:45;;;;;;;;;;;17.70;99.90;;;;;;5063851;28;19920;-76
2021/07/19 05:28:12;;;;;;;;;;;17.90;99.90;;;;;;5063687;28;19924;-76
2021/07/19 05:30:39;;;;;;;;;;;18.00;99.90;;;;;;5066427;28;19957;-75
2021/07/19 05:33:05;;;;;;;;;;;18.00;99.90;;;;;;5063816;28;19917;-75
2021/07/19 05:35:31;;;;;;;;;;;18.20;99.90;;;;;;5071139;28;20269;-75
2021/07/19 05:37:56;;;;;;;;;;;18.30;99.90;;;;;;5062560;28;19913;-75
2021/07/19 05:40:22;;;;;;;;;;;18.40;99.90;;;;;;5059081;28;19920;-76
2021/07/19 05:42:47;;;;;;;;;;;18.60;99.90;;;;;;5058340;28;19913;-76
2021/07/19 05:45:14;;;;;;;;;;;18.80;99.90;;;;;;5054511;28;19913;-75
2021/07/19 05:47:40;;;;;;;;;;;18.90;99.90;;;;;;5064068;28;19924;-75
2021/07/19 05:50:06;;;;;;;;;;;19.10;99.90;;;;;;5064387;28;19913;-75
2021/07/19 05:52:32;;;;;;;;;;;19.10;99.90;;;;;;5060213;28;19913;-75
2021/07/19 05:54:57;;;;;;;;;;;19.20;99.90;;;;;;5064249;28;19935;-75
2021/07/19 05:57:27;;;;;;;;;;;19.20;99.90;;;;;;5058683;28;20289;-75
2021/07/19 05:59:56;;;;;;;;;;;19.30;99.90;;;;;;5059942;28;19921;-75
2021/07/19 06:02:25;;;;;;;;;;;19.30;99.90;;;;;;5060790;28;19970;-75
2021/07/19 06:04:50;;;;;;;;;;;19.20;99.90;;;;;;5059947;28;19926;-76
2021/07/19 06:07:16;;;;;;;;;;;19.40;99.90;;;;;;5059533;28;20432;-76
2021/07/19 06:09:41;;;;;;;;;;;19.70;99.90;;;;;;5062421;28;19966;-75
2021/07/19 06:12:07;;;;;;;;;;;19.90;99.90;;;;;;5060340;28;20388;-76
2021/07/19 06:14:33;;;;;;;;;;;20.10;99.90;;;;;;5083205;28;19966;-75
2021/07/19 06:16:58;;;;;;;;;;;20.20;99.90;;;;;;5066297;28;20292;-75
2021/07/19 06:19:24;;;;;;;;;;;20.20;99.90;;;;;;5058330;28;20039;-76
2021/07/19 06:21:49;;;;;;;;;;;20.20;99.90;;;;;;5069247;28;19920;-75
2021/07/19 06:24:15;;;;;;;;;;;20.20;99.90;;;;;;5069805;28;20327;-75
2021/07/19 06:26:40;;;;;;;;;;;20.40;99.90;;;;;;5058537;28;20289;-75
2021/07/19 06:29:06;;;;;;;;;;;20.50;99.90;;;;;;5055882;28;20012;-75
2021/07/19 06:31:32;;;;;;;;;;;20.50;99.90;;;;;;5063629;28;19959;-76
2021/07/19 06:33:57;;;;;;;;;;;20.50;99.90;;;;;;5059819;28;19912;-76
2021/07/19 06:36:23;;;;;;;;;;;20.60;99.90;;;;;;5059574;28;19959;-75
2021/07/19 06:38:48;;;;;;;;;;;20.50;99.90;;;;;;5067593;28;19916;-74
2021/07/19 06:41:14;;;;;;;;;;;20.40;99.90;;;;;;5056954;28;20289;-75
2021/07/19 06:43:40;;;;;;;;;;;20.40;99.90;;;;;;5062408;28;20335;-75
2021/07/19 06:46:06;;;;;;;;;;;20.30;99.90;;;;;;5060627;28;20008;-76
2021/07/19 06:48:32;;;;;;;;;;;20.10;99.90;;;;;;5067067;28;19944;-75
2021/07/19 06:50:57;;;;;;;;;;;20.10;99.90;;;;;;5067651;28;19912;-75
2021/07/19 06:53:23;;;;;;;;;;;20.00;99.90;;;;;;5064120;28;20361;-76
2021/07/19 06:55:48;;;;;;;;;;;19.90;99.90;;;;;;5063037;28;19919;-75
2021/07/19 06:58:14;;;;;;;;;;;20.00;99.90;;;;;;5059725;28;20005;-75
2021/07/19 07:00:39;;;;;;;;;;;19.90;99.90;;;;;;5062039;28;19916;-75
2021/07/19 07:05:49;;;;;;;;;;;19.80;99.90;;;;;;5057653;28;19957;-76
2021/07/19 07:08:14;;;;;;;;;;;19.90;99.90;;;;;;5067363;28;19929;-75
2021/07/19 07:10:40;;;;;;;;;;;20.00;99.90;;;;;;5063621;28;19912;-75
2021/07/19 07:13:09;;;;;;;;;;;20.00;99.90;;;;;;5064165;28;19919;-76
2021/07/19 07:15:36;;;;;;;;;;;20.10;99.90;;;;;;5061773;28;19920;-75
2021/07/19 07:18:03;;;;;;;;;;;20.10;99.90;;;;;;5058990;28;20285;-75
2021/07/19 07:20:28;;;;;;;;;;;20.20;99.90;;;;;;5057487;28;19913;-75
2021/07/19 07:22:55;;;;;;;;;;;20.50;99.90;;;;;;5055875;28;20373;-76
2021/07/19 07:25:20;;;;;;;;;;;20.50;99.90;;;;;;5069796;28;19913;-75
2021/07/19 07:27:46;;;;;;;;;;;20.50;99.90;;;;;;5067596;28;19938;-75
2021/07/19 07:30:11;;;;;;;;;;;20.50;99.90;;;;;;5063667;28;20399;-76
2021/07/19 07:32:37;;;;;;;;;;;20.40;99.90;;;;;;5066922;28;19958;-75
2021/07/19 07:35:03;;;;;;;;;;;20.30;99.90;;;;;;5060961;28;19928;-76
2021/07/19 07:37:30;;;;;;;;;;;20.10;99.90;;;;;;5069014;28;19939;-75
2021/07/19 07:39:56;;;;;;;;;;;20.10;99.90;;;;;;5055977;28;19917;-76
2021/07/19 07:42:21;;;;;;;;;;;20.10;99.90;;;;;;5065480;28;20361;-76
2021/07/19 07:44:47;;;;;;;;;;;20.00;99.90;;;;;;5060082;28;19920;-76
2021/07/19 07:47:12;;;;;;;;;;;19.90;99.90;;;;;;5057370;28;19974;-74
2021/07/19 07:49:39;;;;;;;;;;;20.00;99.90;;;;;;5062034;28;19944;-76
2021/07/19 07:52:05;;;;;;;;;;;20.20;99.90;;;;;;5066862;28;20279;-75
2021/07/19 07:54:30;;;;;;;;;;;20.20;99.90;;;;;;5060253;28;20395;-76
2021/07/19 07:56:56;;;;;;;;;;;20.30;99.90;;;;;;5061555;28;20368;-75
2021/07/19 07:59:21;;;;;;;;;;;20.30;99.90;;;;;;5058916;28;19912;-75
2021/07/19 08:01:47;;;;;;;;;;;20.40;99.90;;;;;;5058874;28;19913;-75
2021/07/19 08:04:12;;;;;;;;;;;20.40;99.90;;;;;;5059985;28;19913;-73
2021/07/19 08:06:38;;;;;;;;;;;20.40;99.90;;;;;;5060862;28;19916;-76
2021/07/19 08:09:03;;;;;;;;;;;20.40;99.90;;;;;;5057392;28;19928;-76
2021/07/19 08:11:29;;;;;;;;;;;20.40;99.90;;;;;;5065233;28;19948;-79
2021/07/19 08:13:54;;;;;;;;;;;20.40;99.90;;;;;;5058758;28;20011;-79
2021/07/19 08:16:20;;;;;;;;;;;20.30;99.90;;;;;;5066993;28;19913;-84
2021/07/19 08:18:46;;;;;;;;;;;20.30;99.90;;;;;;5058136;28;20041;-80
2021/07/19 08:21:14;;;;;;;;;;;20.30;99.90;;;;;;5078120;28;19912;-83
2021/07/19 08:23:39;;;;;;;;;;;20.20;99.90;;;;;;5072215;28;19919;-82
2021/07/19 08:26:05;;;;;;;;;;;20.20;99.90;;;;;;5082592;28;19916;-78
2021/07/19 08:28:30;;;;;;;;;;;20.20;99.90;;;;;;5078367;28;19962;-78
2021/07/19 08:30:56;;;;;;;;;;;20.00;99.90;;;;;;5083198;28;19935;-80
2021/07/19 08:33:21;;;;;;;;;;;20.00;99.90;;;;;;5086590;28;19932;-79
2021/07/19 08:35:47;;;;;;;;;;;20.10;99.90;;;;;;5070207;28;19912;-79
2021/07/19 08:38:13;;;;;;;;;;;20.20;99.90;;;;;;5076690;28;19966;-77
2021/07/19 08:40:38;;;;;;;;;;;20.40;99.90;;;;;;5075212;28;19965;-77
2021/07/19 08:43:06;;;;;;;;;;;20.50;99.90;;;;;;5071548;28;19926;-77
2021/07/19 08:45:32;;;;;;;;;;;20.50;99.90;;;;;;5072776;28;19912;-77
2021/07/19 08:47:58;;;;;;;;;;;20.40;99.90;;;;;;5070238;28;19917;-76
2021/07/19 08:50:24;;;;;;;;;;;20.40;99.90;;;;;;5070015;28;19920;-77
2021/07/19 08:52:51;;;;;;;;;;;20.30;99.90;;;;;;5078824;28;19912;-77
2021/07/19 08:55:17;;;;;;;;;;;20.40;99.90;;;;;;5074952;28;19912;-74
2021/07/19 08:57:46;;;;;;;;;;;20.50;99.90;;;;;;5081169;28;19913;-77
2021/07/19 09:00:11;;;;;;;;;;;20.50;99.90;;;;;;5079713;28;19905;-82
2021/07/19 09:02:37;;;;;;;;;;;20.50;99.90;;;;;;5087957;28;19924;-78
2021/07/19 09:05:03;;;;;;;;;;;20.40;99.90;;;;;;5078325;28;19913;-77
2021/07/19 09:07:30;;;;;;;;;;;20.30;99.90;;;;;;5070668;28;19916;-76
2021/07/19 09:09:55;;;;;;;;;;;20.50;99.90;;;;;;5079456;28;19916;-79
2021/07/19 09:12:34;;;;;;;;;;;20.50;99.90;;;;;;5083390;28;19931;-77
2021/07/19 09:15:00;;;;;;;;;;;20.70;99.90;;;;;;5084011;28;19928;-79
2021/07/19 09:17:27;;;;;;;;;;;20.70;99.90;;;;;;5096340;28;19924;-78
2021/07/19 09:19:54;;;;;;;;;;;20.70;99.90;;;;;;5096956;28;19923;-74
2021/07/19 09:22:26;;;;;;;;;;;20.80;99.90;;;;;;5086623;28;19908;-77
2021/07/19 09:24:52;;;;;;;;;;;20.90;99.90;;;;;;5082490;28;19904;-77
2021/07/19 09:27:19;;;;;;;;;;;20.90;99.90;;;;;;5086676;28;19929;-78
2021/07/19 09:29:45;;;;;;;;;;;20.80;99.90;;;;;;5096131;28;19956;-77
2021/07/19 09:32:10;;;;;;;;;;;20.80;99.90;;;;;;5097251;28;19907;-81
2021/07/19 09:34:37;;;;;;;;;;;20.80;99.90;;;;;;5099263;28;19901;-79
2021/07/19 09:37:03;;;;;;;;;;;20.80;99.90;;;;;;5090940;28;19915;-78
2021/07/19 09:39:33;;;;;;;;;;;20.80;99.90;;;;;;5079292;28;19917;-78
2021/07/19 09:42:10;;;;;;;;;;;20.80;99.90;;;;;;5088824;28;19917;-77
2021/07/19 09:44:36;;;;;;;;;;;21.00;99.90;;;;;;5086763;28;19976;-77
2021/07/19 09:47:03;;;;;;;;;;;21.30;99.90;;;;;;5077773;28;19912;-76
2021/07/19 09:49:30;;;;;;;;;;;21.50;99.90;;;;;;5091308;28;19972;-76
2021/07/19 09:52:13;;;;;;;;;;;21.80;99.90;;;;;;5076505;28;19917;-75
2021/07/19 09:54:43;;;;;;;;;;;21.90;99.90;;;;;;5087751;28;19964;-77
2021/07/19 09:57:09;;;;;;;;;;;21.80;99.90;;;;;;5086168;28;19950;-73
2021/07/19 09:59:48;;;;;;;;;;;22.10;99.90;;;;;;5089009;28;19961;-76
2021/07/19 10:02:29;;;;;;;;;;;22.10;99.90;;;;;;5091466;28;19908;-75
2021/07/19 10:04:54;;;;;;;;;;;22.20;99.90;;;;;;5081226;28;19935;-75
2021/07/19 10:07:23;;;;;;;;;;;23.00;99.90;;;;;;5089429;28;19921;-76
2021/07/19 10:09:49;;;;;;;;;;;23.40;99.90;;;;;;5085144;28;19917;-75
2021/07/19 10:12:15;;;;;;;;;;;23.40;99.90;;;;;;5091153;28;19927;-74
2021/07/19 10:14:41;;;;;;;;;;;23.20;99.90;;;;;;5088572;28;19922;-74
2021/07/19 10:17:07;;;;;;;;;;;23.10;99.90;;;;;;5082529;28;19935;-76
2021/07/19 10:19:35;;;;;;;;;;;22.90;99.90;;;;;;5092301;28;19935;-75
2021/07/19 10:22:00;;;;;;;;;;;22.80;99.90;;;;;;5078496;28;19901;-76
2021/07/19 10:24:26;;;;;;;;;;;22.70;99.90;;;;;;5086125;28;19948;-76
2021/07/19 10:26:51;;;;;;;;;;;22.50;99.90;;;;;;5091121;28;19921;-76
2021/07/19 10:29:17;;;;;;;;;;;22.50;99.90;;;;;;5078406;28;19919;-77
2021/07/19 10:31:44;;;;;;;;;;;22.60;99.90;;;;;;5067071;28;19975;-76
2021/07/19 10:34:11;;;;;;;;;;;23.00;99.90;;;;;;5071340;28;19947;-75
2021/07/19 10:36:38;;;;;;;;;;;23.50;99.90;;;;;;5068666;28;19912;-76
2021/07/19 10:39:09;;;;;;;;;;;24.10;99.90;;;;;;5073790;28;19951;-77
2021/07/19 10:41:35;;;;;;;;;;;24.30;99.90;;;;;;5074637;28;19989;-76
2021/07/19 10:44:05;;;;;;;;;;;24.10;99.90;;;;;;5066858;28;19921;-76
2021/07/19 10:46:31;;;;;;;;;;;24.50;99.90;;;;;;5060394;28;19924;-78
2021/07/19 10:49:08;;;;;;;;;;;24.90;99.90;;;;;;5078810;28;19912;-77
2021/07/19 10:51:41;;;;;;;;;;;25.30;99.90;;;;;;5073415;28;20379;-77
2021/07/19 10:54:12;;;;;;;;;;;24.60;99.90;;;;;;5071928;28;19916;-76
2021/07/19 10:56:38;;;;;;;;;;;23.70;99.90;;;;;;5064139;28;19967;-77
2021/07/19 10:59:03;;;;;;;;;;;23.10;99.90;;;;;;5076989;28;19924;-76
2021/07/19 11:01:29;;;;;;;;;;;22.80;99.90;;;;;;5069844;28;19920;-76
2021/07/19 11:03:57;;;;;;;;;;;22.70;99.90;;;;;;5069974;28;19923;-77
2021/07/19 11:06:31;;;;;;;;;;;22.50;99.90;;;;;;5062877;28;19917;-77
2021/07/19 11:08:57;;;;;;;;;;;22.40;99.90;;;;;;5066318;28;20438;-77
2021/07/19 11:11:27;;;;;;;;;;;22.70;99.90;;;;;;5067464;28;19912;-77
2021/07/19 11:14:03;;;;;;;;;;;23.20;99.90;;;;;;5071826;28;19966;-77
2021/07/19 11:16:42;;;;;;;;;;;23.50;99.90;;;;;;5069091;28;19917;-75
2021/07/19 11:19:08;;;;;;;;;;;23.80;99.90;;;;;;5073608;28;19913;-77
2021/07/19 11:21:34;;;;;;;;;;;23.90;99.90;;;;;;5077557;28;19927;-76
2021/07/19 11:24:09;;;;;;;;;;;23.90;99.90;;;;;;5074464;28;19995;-77
2021/07/19 11:26:45;;;;;;;;;;;23.60;99.90;;;;;;5072048;28;19931;-78
2021/07/19 11:29:11;;;;;;;;;;;23.60;99.90;;;;;;5067139;28;19912;-77
2021/07/19 11:31:37;;;;;;;;;;;23.70;99.90;;;;;;5071089;28;19955;-77
2021/07/19 11:34:03;;;;;;;;;;;23.60;99.90;;;;;;5071264;28;19931;-75
2021/07/19 11:36:30;;;;;;;;;;;23.60;99.90;;;;;;5070514;28;19951;-77
2021/07/19 11:38:58;;;;;;;;;;;23.80;99.90;;;;;;5073230;28;19919;-77
2021/07/19 11:41:25;;;;;;;;;;;23.70;99.90;;;;;;5067963;28;19951;-77
2021/07/19 11:43:55;;;;;;;;;;;23.50;99.90;;;;;;5064689;28;19920;-77
2021/07/19 11:46:32;;;;;;;;;;;23.30;99.90;;;;;;5069387;28;20335;-76
2021/07/19 11:49:05;;;;;;;;;;;23.00;99.90;;;;;;5076390;28;19965;-76
2021/07/19 11:51:32;;;;;;;;;;;22.90;99.90;;;;;;5064898;28;19954;-76
2021/07/19 11:53:58;;;;;;;;;;;23.00;99.90;;;;;;5063706;28;19913;-76
2021/07/19 11:56:24;;;;;;;;;;;23.30;99.90;;;;;;5067656;28;19918;-76
2021/07/19 11:58:51;;;;;;;;;;;23.40;99.90;;;;;;5066389;28;20277;-76
2021/07/19 12:01:22;;;;;;;;;;;23.40;99.90;;;;;;5069464;28;19971;-76
2021/07/19 12:03:57;;;;;;;;;;;23.50;99.90;;;;;;5068815;28;19921;-77
2021/07/19 12:06:24;;;;;;;;;;;23.50;99.90;;;;;;5071943;28;19942;-77
2021/07/19 12:09:00;;;;;;;;;;;23.50;99.90;;;;;;5067842;28;19927;-77
2021/07/19 12:11:26;;;;;;;;;;;23.60;99.90;;;;;;5068658;28;20058;-76
2021/07/19 12:13:59;;;;;;;;;;;23.60;99.90;;;;;;5065318;28;19958;-77
2021/07/19 12:16:31;;;;;;;;;;;23.60;99.90;;;;;;5061128;28;19943;-77
2021/07/19 12:18:57;;;;;;;;;;;23.80;99.90;;;;;;5066698;28;19916;-77
2021/07/19 12:21:25;;;;;;;;;;;24.00;99.90;;;;;;5072905;28;19912;-77
2021/07/19 12:23:53;;;;;;;;;;;24.20;99.90;;;;;;5077180;28;19912;-76
2021/07/19 12:26:20;;;;;;;;;;;24.20;99.90;;;;;;5076300;28;19916;-78
2021/07/19 12:28:53;;;;;;;;;;;24.10;99.90;;;;;;5070269;28;19912;-77
2021/07/19 12:31:39;;;;;;;;;;;24.10;99.90;;;;;;5066202;28;19917;-77
2021/07/19 12:34:06;;;;;;;;;;;24.20;99.90;;;;;;5063115;28;20003;-77
2021/07/19 12:36:31;;;;;;;;;;;24.30;99.90;;;;;;5064955;28;20324;-75
2021/07/19 12:38:57;;;;;;;;;;;24.40;99.90;;;;;;5069214;28;19999;-74
2021/07/19 12:41:23;;;;;;;;;;;24.30;99.90;;;;;;5073322;28;20296;-76
2021/07/19 12:43:49;;;;;;;;;;;24.10;99.90;;;;;;5065855;28;20456;-77
2021/07/19 12:46:14;;;;;;;;;;;23.80;99.90;;;;;;5061501;28;19956;-77
2021/07/19 12:48:44;;;;;;;;;;;23.50;99.90;;;;;;5066484;28;19948;-76
2021/07/19 12:51:10;;;;;;;;;;;23.40;99.90;;;;;;5058392;28;20031;-75
2021/07/19 12:53:36;;;;;;;;;;;23.50;99.90;;;;;;5063161;28;19916;-76
2021/07/19 12:56:07;;;;;;;;;;;23.50;99.90;;;;;;5066762;28;19920;-77
2021/07/19 12:58:33;;;;;;;;;;;23.50;99.90;;;;;;5068872;28;19912;-77
2021/07/19 13:01:11;;;;;;;;;;;23.30;99.90;;;;;;5071308;28;20003;-77
2021/07/19 13:03:37;;;;;;;;;;;23.20;99.90;;;;;;5063869;28;20327;-76
2021/07/19 13:06:05;;;;;;;;;;;23.50;99.90;;;;;;5065179;28;19913;-77
2021/07/19 13:08:30;;;;;;;;;;;23.80;99.90;;;;;;5063067;28;20067;-76
2021/07/19 13:11:07;;;;;;;;;;;24.10;99.90;;;;;;5064306;28;19952;-77
2021/07/19 13:13:32;;;;;;;;;;;24.20;99.90;;;;;;5062941;28;19927;-76
2021/07/19 13:15:58;;;;;;;;;;;24.10;99.90;;;;;;5070880;28;19913;-75
2021/07/19 13:18:23;;;;;;;;;;;24.20;99.90;;;;;;5063577;28;19913;-77
2021/07/19 13:20:59;;;;;;;;;;;24.10;99.90;;;;;;5061178;28;20008;-77
2021/07/19 13:23:24;;;;;;;;;;;24.30;99.90;;;;;;5061550;28;20278;-77
2021/07/19 13:25:50;;;;;;;;;;;24.40;99.90;;;;;;5067773;28;19965;-76
2021/07/19 13:28:16;;;;;;;;;;;24.40;99.90;;;;;;5063028;28;19939;-77
2021/07/19 13:30:41;;;;;;;;;;;24.40;99.90;;;;;;5062087;28;19913;-76
2021/07/19 13:33:08;;;;;;;;;;;24.20;99.90;;;;;;5057236;28;19931;-76
2021/07/19 13:35:39;;;;;;;;;;;23.90;99.90;;;;;;5060750;28;20315;-76
2021/07/19 13:38:04;;;;;;;;;;;23.90;99.90;;;;;;5073192;28;19921;-76
2021/07/19 13:40:37;;;;;;;;;;;24.00;99.90;;;;;;5067476;28;20365;-77
2021/07/19 13:43:05;;;;;;;;;;;23.90;99.90;;;;;;5066844;28;19920;-76
2021/07/19 13:45:30;;;;;;;;;;;24.00;99.90;;;;;;5062609;28;19956;-76
2021/07/19 13:47:57;;;;;;;;;;;23.90;99.90;;;;;;5066185;28;19966;-76
2021/07/19 13:50:22;;;;;;;;;;;24.00;99.90;;;;;;5068781;28;19913;-78
2021/07/19 13:52:49;;;;;;;;;;;24.20;99.90;;;;;;5064383;28;19920;-78
2021/07/19 13:55:14;;;;;;;;;;;24.20;99.90;;;;;;5066523;28;20557;-78
2021/07/19 13:57:40;;;;;;;;;;;24.30;99.90;;;;;;5071584;28;19966;-77
2021/07/19 14:00:06;;;;;;;;;;;24.20;99.90;;;;;;5065892;28;19935;-77
2021/07/19 14:02:32;;;;;;;;;;;24.20;99.90;;;;;;5064582;28;19936;-77
2021/07/19 14:04:57;;;;;;;;;;;24.20;99.90;;;;;;5072192;28;19963;-77
2021/07/19 14:07:23;;;;;;;;;;;24.10;99.90;;;;;;5073727;28;20380;-78
2021/07/19 14:09:48;;;;;;;;;;;24.10;99.90;;;;;;5074735;28;19928;-77
2021/07/19 14:12:14;;;;;;;;;;;23.90;99.90;;;;;;5058980;28;19966;-78
2021/07/19 14:14:40;;;;;;;;;;;24.00;99.90;;;;;;5064958;28;19913;-77
2021/07/19 14:17:06;;;;;;;;;;;24.00;99.90;;;;;;5067277;28;19974;-77
2021/07/19 14:19:32;;;;;;;;;;;24.00;99.90;;;;;;5064993;28;19917;-78